createdAt,value
2017-10-31T00:02:23.429Z,21.67
2017-10-31T00:04:52.290Z,22.47
2017-10-31T00:07:21.178Z,17.03
2017-10-31T00:09:50.046Z,21.60
2017-10-31T00:12:18.902Z,20.30
2017-10-31T00:14:47.987Z,17.83
2017-10-31T00:17:16.830Z,16.10
2017-10-31T00:19:45.698Z,22.07
2017-10-31T00:22:14.635Z,17.60
2017-10-31T00:24:43.484Z,13.97
2017-10-31T00:27:12.361Z,16.97
2017-10-31T00:29:41.209Z,16.80
2017-10-31T00:32:10.102Z,19.07
2017-10-31T00:34:38.943Z,16.53
2017-10-31T00:37:07.828Z,14.73
2017-10-31T00:39:36.670Z,19.97
2017-10-31T00:42:06.489Z,16.10
2017-10-31T00:44:35.360Z,18.50
2017-10-31T00:47:04.203Z,17.07
2017-10-31T00:49:33.074Z,16.83
2017-10-31T00:52:01.934Z,22.67
2017-10-31T00:54:30.792Z,25.20
2017-10-31T00:56:59.643Z,16.47
2017-10-31T00:59:28.702Z,19.60
2017-10-31T01:01:57.573Z,16.00
2017-10-31T01:04:26.435Z,19.33
2017-10-31T01:06:55.325Z,20.90
2017-10-31T01:09:24.210Z,19.70
2017-10-31T01:11:53.110Z,22.37
2017-10-31T01:14:21.974Z,14.17
2017-10-31T01:16:50.842Z,13.97
2017-10-31T01:19:19.702Z,18.27
2017-10-31T01:21:48.612Z,18.17
2017-10-31T01:24:17.459Z,13.47
2017-10-31T01:26:46.312Z,27.00
2017-10-31T01:29:15.175Z,15.23
2017-10-31T01:31:44.047Z,14.70
2017-10-31T01:34:12.919Z,16.27
2017-10-31T01:36:41.770Z,18.30
2017-10-31T01:39:10.631Z,14.07
2017-10-31T01:41:39.502Z,23.33
2017-10-31T01:44:08.403Z,21.00
2017-10-31T01:46:37.299Z,19.73
2017-10-31T01:49:06.181Z,19.60
2017-10-31T01:51:35.062Z,16.47
2017-10-31T01:54:03.926Z,15.90
2017-10-31T01:56:32.799Z,14.10
2017-10-31T01:59:01.652Z,22.67
2017-10-31T02:01:30.526Z,14.90
2017-10-31T02:03:59.382Z,14.40
2017-10-31T02:06:28.271Z,21.10
2017-10-31T02:08:57.123Z,20.30
2017-10-31T02:11:25.992Z,16.67
2017-10-31T02:13:54.883Z,33.77
2017-10-31T02:16:23.742Z,17.53
2017-10-31T02:18:52.606Z,21.97
2017-10-31T02:21:21.467Z,19.00
2017-10-31T02:23:50.335Z,20.40
2017-10-31T02:26:19.188Z,20.23
2017-10-31T02:28:48.088Z,12.20
2017-10-31T02:31:16.936Z,9.43
2017-10-31T02:33:45.804Z,18.27
2017-10-31T02:36:14.670Z,17.53
2017-10-31T02:38:49.278Z,18.87
2017-10-31T02:41:18.165Z,14.10
2017-10-31T02:43:47.052Z,15.93
2017-10-31T02:46:15.923Z,20.17
2017-10-31T02:48:44.797Z,19.17
2017-10-31T02:51:13.824Z,23.67
2017-10-31T02:53:42.694Z,15.07
2017-10-31T02:56:11.564Z,13.13
2017-10-31T02:58:40.450Z,23.77
2017-10-31T03:01:09.302Z,19.23
2017-10-31T03:03:38.183Z,11.73
2017-10-31T03:06:07.059Z,17.83
2017-10-31T03:08:35.947Z,8.83
2017-10-31T03:11:04.799Z,14.97
2017-10-31T03:13:33.714Z,16.80
2017-10-31T03:16:02.584Z,10.30
2017-10-31T03:18:31.430Z,15.50
2017-10-31T03:21:00.296Z,14.73
2017-10-31T03:23:29.162Z,14.40
2017-10-31T03:25:58.050Z,15.17
2017-10-31T03:28:26.927Z,19.57
2017-10-31T03:30:55.828Z,27.73
2017-10-31T03:33:24.706Z,19.33
2017-10-31T03:35:53.592Z,15.33
2017-10-31T03:40:57.983Z,17.17
2017-10-31T03:43:26.843Z,9.97
2017-10-31T03:45:55.726Z,11.63
2017-10-31T03:48:24.621Z,10.97
2017-10-31T03:50:53.471Z,19.73
2017-10-31T03:53:22.344Z,20.07
2017-10-31T03:55:51.191Z,16.67
2017-10-31T03:58:20.055Z,14.87
2017-10-31T04:00:48.910Z,20.97
2017-10-31T04:03:17.794Z,19.67
2017-10-31T04:05:46.705Z,17.83
2017-10-31T04:08:15.576Z,13.37
2017-10-31T04:10:44.447Z,16.00
2017-10-31T04:13:13.289Z,12.67
2017-10-31T04:15:42.199Z,17.10
2017-10-31T04:18:11.075Z,19.13
2017-10-31T04:20:39.947Z,25.03
2017-10-31T04:23:08.847Z,21.20
2017-10-31T04:25:37.739Z,16.63
2017-10-31T04:28:06.609Z,25.50
2017-10-31T04:30:35.483Z,20.73
2017-10-31T04:33:04.348Z,20.00
2017-10-31T04:35:33.198Z,15.40
2017-10-31T04:38:02.079Z,13.93
2017-10-31T04:40:30.930Z,20.70
2017-10-31T04:42:59.807Z,19.53
2017-10-31T04:45:28.664Z,25.53
2017-10-31T04:47:57.550Z,9.07
2017-10-31T04:50:26.423Z,16.27
2017-10-31T04:52:55.318Z,17.53
2017-10-31T04:55:24.209Z,17.90
2017-10-31T04:57:53.086Z,13.67
2017-10-31T05:00:21.981Z,16.03
2017-10-31T05:02:50.825Z,14.23
2017-10-31T05:05:19.694Z,18.23
2017-10-31T05:07:48.545Z,18.20
2017-10-31T05:10:17.558Z,13.00
2017-10-31T05:12:46.412Z,10.80
2017-10-31T05:15:15.263Z,21.43
2017-10-31T05:17:44.131Z,11.20
2017-10-31T05:20:12.981Z,11.90
2017-10-31T05:22:41.860Z,30.07
2017-10-31T05:25:10.710Z,13.87
2017-10-31T05:27:39.583Z,17.17
2017-10-31T05:30:08.436Z,19.63
2017-10-31T05:32:37.330Z,10.63
2017-10-31T05:35:06.182Z,16.77
2017-10-31T05:37:35.046Z,11.20
2017-10-31T05:40:03.927Z,12.57
2017-10-31T05:42:32.794Z,11.00
2017-10-31T05:45:01.674Z,20.47
2017-10-31T05:47:30.518Z,12.47
2017-10-31T05:49:59.391Z,14.70
2017-10-31T05:52:28.292Z,12.90
2017-10-31T05:54:57.198Z,12.63
2017-10-31T05:57:26.148Z,13.07
2017-10-31T05:59:55.008Z,10.80
2017-10-31T06:02:23.890Z,13.63
2017-10-31T06:04:52.743Z,15.53
2017-10-31T06:07:21.639Z,7.30
2017-10-31T06:09:50.489Z,7.73
2017-10-31T06:12:19.368Z,13.10
2017-10-31T06:14:48.226Z,13.23
2017-10-31T06:17:17.120Z,11.70
2017-10-31T06:19:45.966Z,14.27
2017-10-31T06:22:20.785Z,12.33
2017-10-31T06:24:55.409Z,13.43
2017-10-31T06:27:30.326Z,7.67
2017-10-31T06:30:04.997Z,12.63
2017-10-31T06:32:33.886Z,11.27
2017-10-31T06:35:02.753Z,15.20
2017-10-31T06:37:31.602Z,10.20
2017-10-31T06:40:00.470Z,7.70
2017-10-31T06:42:29.322Z,9.37
2017-10-31T06:44:58.190Z,11.47
2017-10-31T06:47:27.055Z,17.77
2017-10-31T06:49:55.934Z,10.03
2017-10-31T06:52:24.782Z,10.63
2017-10-31T06:54:53.883Z,14.00
2017-10-31T06:57:22.729Z,16.77
2017-10-31T06:59:51.598Z,10.10
2017-10-31T07:02:20.472Z,15.20
2017-10-31T07:04:49.339Z,13.30
2017-10-31T07:07:18.202Z,16.80
2017-10-31T07:09:47.093Z,13.57
2017-10-31T07:12:16.343Z,10.77
2017-10-31T07:14:45.191Z,8.20
2017-10-31T07:17:14.105Z,10.73
2017-10-31T07:19:42.969Z,20.27
2017-10-31T07:22:11.827Z,8.90
2017-10-31T07:24:40.696Z,12.07
2017-10-31T07:27:09.555Z,12.60
2017-10-31T07:29:38.435Z,10.47
2017-10-31T07:32:07.286Z,17.77
2017-10-31T07:34:36.154Z,10.93
2017-10-31T07:37:05.026Z,10.03
2017-10-31T07:39:33.928Z,17.20
2017-10-31T07:42:02.782Z,15.47
2017-10-31T07:44:31.633Z,11.83
2017-10-31T07:47:00.496Z,14.03
2017-10-31T07:49:29.346Z,11.93
2017-10-31T07:51:58.214Z,9.13
2017-10-31T07:54:27.086Z,10.20
2017-10-31T07:56:56.074Z,14.63
2017-10-31T07:59:24.915Z,14.07
2017-10-31T08:01:53.801Z,11.30
2017-10-31T08:04:22.657Z,9.37
2017-10-31T08:06:51.535Z,11.43
2017-10-31T08:09:20.435Z,14.93
2017-10-31T08:11:49.322Z,10.20
2017-10-31T08:14:18.187Z,14.03
2017-10-31T08:16:47.034Z,7.03
2017-10-31T08:19:15.905Z,10.63
2017-10-31T08:21:44.868Z,21.80
2017-10-31T08:24:13.752Z,14.33
2017-10-31T08:26:42.594Z,16.67
2017-10-31T08:29:11.451Z,19.47
2017-10-31T08:31:40.328Z,22.70
2017-10-31T08:34:09.186Z,23.20
2017-10-31T08:36:38.057Z,23.67
2017-10-31T08:39:06.942Z,32.27
2017-10-31T08:41:35.820Z,15.67
2017-10-31T08:44:04.672Z,14.33
2017-10-31T08:46:33.536Z,24.43
2017-10-31T08:49:02.383Z,23.93
2017-10-31T08:51:31.407Z,19.87
2017-10-31T08:54:00.276Z,23.50
2017-10-31T08:56:29.127Z,20.27
2017-10-31T08:58:57.992Z,21.20
2017-10-31T09:01:26.831Z,26.10
2017-10-31T09:03:55.723Z,30.23
2017-10-31T09:06:24.574Z,25.40
2017-10-31T09:08:53.440Z,16.43
2017-10-31T09:11:22.300Z,18.63
2017-10-31T09:13:51.310Z,26.00
2017-10-31T09:16:20.155Z,23.87
2017-10-31T09:18:49.014Z,18.17
2017-10-31T09:21:17.916Z,23.40
2017-10-31T09:23:46.880Z,17.37
2017-10-31T09:26:15.777Z,19.33
2017-10-31T09:28:44.671Z,21.73
2017-10-31T09:31:13.548Z,24.03
2017-10-31T09:33:42.410Z,23.53
2017-10-31T09:36:11.290Z,31.57
2017-10-31T09:38:40.168Z,26.40
2017-10-31T09:41:09.047Z,32.30
2017-10-31T09:43:37.910Z,12.60
2017-10-31T09:46:06.783Z,16.87
2017-10-31T09:48:35.639Z,19.13
2017-10-31T09:51:04.490Z,18.20
2017-10-31T09:53:33.351Z,17.43
2017-10-31T09:56:02.223Z,26.10
2017-10-31T09:58:31.090Z,23.53
2017-10-31T10:00:59.934Z,15.27
2017-10-31T10:03:28.829Z,13.30
2017-10-31T10:05:57.669Z,17.60
2017-10-31T10:08:26.567Z,14.03
2017-10-31T10:10:55.426Z,16.07
2017-10-31T10:13:24.280Z,16.87
2017-10-31T10:15:53.179Z,12.13
2017-10-31T10:18:22.037Z,18.77
2017-10-31T10:20:50.926Z,19.73
2017-10-31T10:23:19.777Z,19.47
2017-10-31T10:25:48.646Z,10.20
2017-10-31T10:28:17.489Z,14.50
2017-10-31T10:30:46.364Z,17.20
2017-10-31T10:33:15.242Z,15.87
2017-10-31T10:35:44.118Z,13.70
2017-10-31T10:38:12.975Z,9.47
2017-10-31T10:40:41.853Z,14.43
2017-10-31T10:43:10.822Z,15.33
2017-10-31T10:45:39.670Z,12.03
2017-10-31T10:48:08.537Z,18.90
2017-10-31T10:50:37.396Z,15.97
2017-10-31T10:53:06.261Z,15.27
2017-10-31T10:55:35.115Z,16.13
2017-10-31T10:58:04.022Z,12.20
2017-10-31T11:00:38.752Z,15.33
2017-10-31T11:03:07.660Z,20.00
2017-10-31T11:05:36.559Z,9.87
2017-10-31T11:08:05.419Z,16.40
2017-10-31T11:10:34.296Z,8.00
2017-10-31T11:13:03.148Z,15.00
2017-10-31T11:15:32.017Z,21.63
2017-10-31T11:18:00.887Z,23.23
2017-10-31T11:20:29.759Z,15.60
2017-10-31T11:22:58.620Z,13.80
2017-10-31T11:25:27.509Z,10.30
2017-10-31T11:27:56.367Z,16.97
2017-10-31T11:30:25.228Z,8.50
2017-10-31T11:32:54.092Z,6.57
2017-10-31T11:35:23.023Z,9.77
2017-10-31T11:37:51.892Z,6.80
2017-10-31T11:40:20.743Z,13.87
2017-10-31T11:42:49.618Z,21.33
2017-10-31T11:45:18.470Z,13.17
2017-10-31T11:47:47.319Z,9.60
2017-10-31T11:50:16.178Z,9.00
2017-10-31T11:52:45.059Z,11.23
2017-10-31T11:55:13.943Z,13.93
2017-10-31T11:57:42.805Z,9.80
2017-10-31T12:00:11.680Z,6.00
2017-10-31T12:02:40.627Z,7.87
2017-10-31T12:05:09.558Z,6.33
2017-10-31T12:07:38.433Z,9.13
2017-10-31T12:10:07.291Z,6.00
2017-10-31T12:12:36.160Z,10.00
2017-10-31T12:15:05.019Z,12.57
2017-10-31T12:17:33.898Z,8.50
2017-10-31T12:20:02.795Z,6.70
2017-10-31T12:22:32.273Z,10.90
2017-10-31T12:25:01.171Z,10.50
2017-10-31T12:27:30.236Z,8.53
2017-10-31T12:29:59.081Z,6.40
2017-10-31T12:32:27.942Z,14.47
2017-10-31T12:34:56.811Z,21.00
2017-10-31T12:37:25.656Z,9.40
2017-10-31T12:39:54.523Z,8.97
2017-10-31T12:42:23.380Z,7.83
2017-10-31T12:44:52.240Z,7.93
2017-10-31T12:47:21.096Z,9.47
2017-10-31T12:49:50.263Z,13.00
2017-10-31T12:52:19.124Z,11.03
2017-10-31T12:54:47.974Z,8.83
2017-10-31T12:57:16.874Z,9.27
2017-10-31T12:59:45.762Z,9.60
2017-10-31T13:02:14.628Z,10.60
2017-10-31T13:04:43.491Z,14.23
2017-10-31T13:07:12.391Z,10.13
2017-10-31T13:09:41.274Z,10.20
2017-10-31T13:12:10.144Z,18.87
2017-10-31T13:14:39.015Z,10.13
2017-10-31T13:17:07.863Z,8.70
2017-10-31T13:19:37.428Z,9.93
2017-10-31T13:22:06.279Z,12.57
2017-10-31T13:24:35.155Z,11.63
2017-10-31T13:27:04.150Z,11.80
2017-10-31T13:29:33.756Z,12.17
2017-10-31T13:32:03.111Z,8.27
2017-10-31T13:34:32.651Z,26.57
2017-10-31T13:37:02.158Z,25.53
2017-10-31T13:39:31.721Z,12.60
2017-10-31T13:42:01.844Z,9.60
2017-10-31T13:44:31.361Z,11.70
2017-10-31T13:47:00.250Z,10.30
2017-10-31T13:49:30.010Z,12.13
2017-10-31T13:51:59.488Z,17.17
2017-10-31T13:54:28.357Z,12.77
2017-10-31T13:56:57.202Z,15.67
2017-10-31T13:59:26.079Z,10.93
2017-10-31T14:01:55.630Z,9.20
2017-10-31T14:04:25.039Z,10.40
2017-10-31T14:06:54.432Z,7.27
2017-10-31T14:09:23.938Z,10.50
2017-10-31T14:11:53.446Z,11.03
2017-10-31T14:14:22.482Z,12.30
2017-10-31T14:16:51.325Z,8.40
2017-10-31T14:19:20.207Z,15.40
2017-10-31T14:21:49.834Z,7.47
2017-10-31T14:24:18.705Z,12.70
2017-10-31T14:26:47.571Z,10.50
2017-10-31T14:29:16.431Z,14.40
2017-10-31T14:31:45.303Z,13.20
2017-10-31T14:34:14.164Z,15.33
2017-10-31T14:36:43.082Z,5.33
2017-10-31T14:39:11.946Z,14.50
2017-10-31T14:41:40.826Z,10.20
2017-10-31T14:44:09.697Z,8.37
2017-10-31T14:46:38.556Z,9.63
2017-10-31T14:49:07.426Z,6.87
2017-10-31T14:51:36.288Z,14.50
2017-10-31T14:54:05.172Z,9.90
2017-10-31T14:56:34.026Z,8.53
2017-10-31T14:59:03.113Z,8.27
2017-10-31T15:01:31.983Z,12.37
2017-10-31T15:04:00.844Z,9.40
2017-10-31T15:06:29.733Z,9.30
2017-10-31T15:08:58.581Z,10.23
2017-10-31T15:11:27.455Z,7.33
2017-10-31T15:13:56.309Z,9.93
2017-10-31T15:16:25.179Z,13.20
2017-10-31T15:18:54.043Z,5.53
2017-10-31T15:21:22.979Z,9.03
2017-10-31T15:23:51.847Z,9.23
2017-10-31T15:26:20.699Z,8.83
2017-10-31T15:28:49.566Z,11.33
2017-10-31T15:31:18.427Z,16.50
2017-10-31T15:33:47.290Z,16.17
2017-10-31T15:36:16.167Z,13.67
2017-10-31T15:38:45.230Z,14.43
2017-10-31T15:41:14.081Z,10.47
2017-10-31T15:43:42.989Z,8.83
2017-10-31T15:46:11.880Z,9.37
2017-10-31T15:48:40.743Z,6.93
2017-10-31T15:51:09.632Z,10.40
2017-10-31T15:53:38.496Z,9.10
2017-10-31T15:56:07.373Z,12.53
2017-10-31T15:58:36.245Z,13.77
2017-10-31T16:01:05.147Z,13.23
2017-10-31T16:03:34.022Z,10.85
2017-10-31T16:06:02.930Z,12.43
2017-10-31T16:08:31.790Z,13.75
2017-10-31T16:11:00.689Z,10.97
2017-10-31T16:13:29.554Z,10.13
2017-10-31T16:15:58.401Z,10.30
2017-10-31T16:18:27.290Z,13.00
2017-10-31T16:20:56.165Z,16.17
2017-10-31T16:23:25.037Z,7.13
2017-10-31T16:25:53.915Z,9.97
2017-10-31T16:28:22.801Z,11.53
2017-10-31T16:30:51.677Z,11.40
2017-10-31T16:33:20.674Z,7.47
2017-10-31T16:35:49.536Z,11.10
2017-10-31T16:38:18.410Z,12.70
2017-10-31T16:40:47.284Z,18.57
2017-10-31T16:43:16.154Z,14.17
2017-10-31T16:45:45.087Z,20.30
2017-10-31T16:48:13.937Z,9.98
2017-10-31T16:50:42.811Z,18.23
2017-10-31T16:53:11.804Z,14.70
2017-10-31T16:55:40.697Z,12.63
2017-10-31T16:58:09.562Z,11.53
2017-10-31T17:00:38.542Z,14.97
2017-10-31T17:03:07.467Z,9.20
2017-10-31T17:05:36.569Z,14.17
2017-10-31T17:08:05.462Z,13.97
2017-10-31T17:10:34.339Z,10.97
2017-10-31T17:13:03.223Z,14.17
2017-10-31T17:15:32.080Z,17.00
2017-10-31T17:18:01.207Z,21.50
2017-10-31T17:20:30.089Z,17.63
2017-10-31T17:22:58.947Z,19.00
2017-10-31T17:25:27.824Z,19.00
2017-10-31T17:27:56.704Z,17.43
2017-10-31T17:30:25.595Z,17.67
2017-10-31T17:32:54.540Z,13.97
2017-10-31T17:35:23.451Z,18.67
2017-10-31T17:37:52.319Z,15.03
2017-10-31T17:40:21.214Z,15.45
2017-10-31T17:42:50.084Z,12.83
2017-10-31T17:45:19.146Z,16.13
2017-10-31T17:47:48.037Z,16.10
2017-10-31T17:50:16.898Z,10.37
2017-10-31T17:52:45.757Z,13.20
2017-10-31T17:55:14.613Z,16.20
2017-10-31T17:57:43.502Z,14.73
2017-10-31T18:00:12.391Z,19.43
2017-10-31T18:02:41.280Z,21.00
2017-10-31T18:05:10.174Z,14.80
2017-10-31T18:07:39.128Z,17.93
2017-10-31T18:10:07.987Z,22.40
2017-10-31T18:12:36.839Z,17.37
2017-10-31T18:15:05.719Z,19.12
2017-10-31T18:17:34.571Z,22.33
2017-10-31T18:20:03.453Z,23.43
2017-10-31T18:22:32.342Z,23.35
2017-10-31T18:25:01.286Z,28.17
2017-10-31T18:27:30.139Z,23.60
2017-10-31T18:29:59.031Z,21.80
2017-10-31T18:32:27.910Z,18.33
2017-10-31T18:34:56.810Z,25.93
2017-10-31T18:37:25.680Z,22.43
2017-10-31T18:39:54.652Z,20.10
2017-10-31T18:42:23.555Z,24.43
2017-10-31T18:44:52.436Z,25.93
2017-10-31T18:47:21.296Z,24.07
2017-10-31T18:49:50.146Z,26.43
2017-10-31T18:52:19.462Z,20.17
2017-10-31T18:54:48.322Z,24.80
2017-10-31T18:57:17.188Z,37.13
2017-10-31T18:59:46.041Z,20.67
2017-10-31T19:02:14.948Z,28.03
2017-10-31T19:04:43.816Z,15.63
2017-10-31T19:07:12.695Z,23.23
2017-10-31T19:09:41.668Z,23.33
2017-10-31T19:12:10.545Z,26.33
2017-10-31T19:14:39.432Z,24.43
2017-10-31T19:17:08.318Z,33.07
2017-10-31T19:19:37.215Z,24.03
2017-10-31T19:22:06.084Z,23.83
2017-10-31T19:24:35.202Z,22.80
2017-10-31T19:27:04.077Z,26.80
2017-10-31T19:29:32.978Z,24.43
2017-10-31T19:32:01.852Z,23.70
2017-10-31T19:34:30.714Z,21.40
2017-10-31T19:36:59.582Z,22.93
2017-10-31T19:39:28.447Z,16.20
2017-10-31T19:41:57.327Z,22.77
2017-10-31T19:44:26.187Z,29.77
2017-10-31T19:46:55.102Z,24.70
2017-10-31T19:49:23.958Z,23.07
2017-10-31T19:51:52.833Z,19.73
2017-10-31T19:54:21.716Z,23.83
2017-10-31T19:56:50.598Z,27.93
2017-10-31T19:59:19.486Z,21.77
2017-10-31T20:01:48.415Z,27.10
2017-10-31T20:04:17.401Z,23.90
2017-10-31T20:06:46.397Z,23.40
2017-10-31T20:09:15.314Z,25.73
2017-10-31T20:11:44.251Z,21.90
2017-10-31T20:14:13.368Z,28.03
2017-10-31T20:16:43.386Z,28.77
2017-10-31T20:19:12.292Z,20.03
2017-10-31T20:21:41.273Z,23.73
2017-10-31T20:24:10.179Z,31.17
2017-10-31T20:26:39.275Z,29.13
2017-10-31T20:29:08.170Z,20.30
2017-10-31T20:31:37.173Z,32.27
2017-10-31T20:34:06.130Z,32.33
2017-10-31T20:36:35.014Z,29.23
2017-10-31T20:39:03.931Z,22.40
2017-10-31T20:41:32.880Z,33.50
2017-10-31T20:44:01.835Z,22.93
2017-10-31T20:46:30.809Z,26.83
2017-10-31T20:48:59.731Z,20.40
2017-10-31T20:51:28.644Z,22.20
2017-10-31T20:53:57.911Z,23.13
2017-10-31T20:56:26.781Z,21.67
2017-10-31T20:58:55.682Z,23.42
2017-10-31T21:01:24.621Z,19.58
2017-10-31T21:03:53.620Z,19.67
2017-10-31T21:06:22.583Z,17.20
2017-10-31T21:08:51.437Z,21.10
2017-10-31T21:11:20.444Z,21.27
2017-10-31T21:13:49.669Z,36.03
2017-10-31T21:16:18.707Z,20.67
2017-10-31T21:18:47.794Z,18.80
2017-10-31T21:21:16.658Z,28.73
2017-10-31T21:23:45.555Z,26.77
2017-10-31T21:26:14.539Z,34.57
2017-10-31T21:28:43.478Z,22.90
2017-10-31T21:31:12.516Z,20.90
2017-10-31T21:33:41.410Z,19.40
2017-10-31T21:36:10.398Z,19.93
2017-10-31T21:38:39.317Z,21.13
2017-10-31T21:41:08.394Z,19.83
2017-10-31T21:43:37.255Z,19.53
2017-10-31T21:46:06.235Z,23.05
2017-10-31T21:48:35.130Z,29.03
2017-10-31T21:51:04.006Z,18.70
2017-10-31T21:53:32.864Z,25.17
2017-10-31T21:56:01.731Z,23.57
2017-10-31T21:58:30.646Z,26.80
2017-10-31T22:00:59.699Z,15.70
2017-10-31T22:03:28.642Z,21.03
2017-10-31T22:05:57.558Z,19.77
2017-10-31T22:08:26.526Z,19.10
2017-10-31T22:10:55.444Z,24.53
2017-10-31T22:13:24.658Z,25.90
2017-10-31T22:15:53.539Z,20.37
2017-10-31T22:18:22.431Z,21.23
2017-10-31T22:20:51.319Z,23.65
2017-10-31T22:23:20.171Z,20.03
2017-10-31T22:25:49.051Z,22.00
2017-10-31T22:28:17.898Z,30.83
2017-10-31T22:30:46.774Z,22.45
2017-10-31T22:33:15.629Z,20.00
2017-10-31T22:35:44.662Z,20.70
2017-10-31T22:38:13.526Z,19.13
2017-10-31T22:40:42.379Z,19.20
2017-10-31T22:43:11.258Z,25.17
2017-10-31T22:45:40.136Z,16.80
2017-10-31T22:48:09.035Z,19.93
2017-10-31T22:50:37.904Z,17.73
2017-10-31T22:53:06.916Z,15.97
2017-10-31T22:55:35.783Z,13.87
2017-10-31T22:58:04.634Z,17.93
2017-10-31T23:00:33.513Z,15.90
2017-10-31T23:03:02.374Z,15.93
2017-10-31T23:05:31.238Z,16.73
2017-10-31T23:08:00.109Z,31.07
2017-10-31T23:10:29.007Z,31.43
2017-10-31T23:12:57.924Z,24.63
2017-10-31T23:15:26.778Z,20.93
2017-10-31T23:17:55.683Z,17.43
2017-10-31T23:20:24.533Z,27.13
2017-10-31T23:22:53.402Z,19.93
2017-10-31T23:25:22.270Z,20.77
2017-10-31T23:27:51.155Z,23.03
2017-10-31T23:30:20.010Z,16.70
2017-10-31T23:32:48.939Z,22.17
2017-10-31T23:35:17.806Z,24.27
2017-10-31T23:37:46.672Z,18.17
2017-10-31T23:40:15.534Z,17.00
2017-10-31T23:42:44.391Z,23.60
2017-10-31T23:45:13.304Z,13.77
2017-10-31T23:47:42.161Z,15.07
2017-10-31T23:50:11.074Z,17.53
2017-10-31T23:52:39.946Z,17.57
2017-10-31T23:55:08.904Z,16.73
2017-10-31T23:57:37.778Z,13.90
